sensor_id;sensor_type;location;lat;lon;timestamp;temperature;humidity
63051;SHT30;49136;47.416;19.402;2024-03-29T00:01:49;7.57;97.40
63051;SHT30;49136;47.416;19.402;2024-03-29T00:04:14;7.57;97.10
63051;SHT30;49136;47.416;19.402;2024-03-29T00:06:40;7.61;97.63
63051;SHT30;49136;47.416;19.402;2024-03-29T00:09:05;7.52;97.85
63051;SHT30;49136;47.416;19.402;2024-03-29T00:11:31;7.64;97.68
63051;SHT30;49136;47.416;19.402;2024-03-29T00:13:57;7.78;97.17
63051;SHT30;49136;47.416;19.402;2024-03-29T00:16:23;7.67;97.70
63051;SHT30;49136;47.416;19.402;2024-03-29T00:18:54;7.69;97.42
63051;SHT30;49136;47.416;19.402;2024-03-29T00:21:19;7.61;97.65
63051;SHT30;49136;47.416;19.402;2024-03-29T00:23:45;7.68;97.80
63051;SHT30;49136;47.416;19.402;2024-03-29T00:26:11;7.69;97.20
63051;SHT30;49136;47.416;19.402;2024-03-29T00:28:37;7.76;96.80
63051;SHT30;49136;47.416;19.402;2024-03-29T00:31:03;7.74;97.33
63051;SHT30;49136;47.416;19.402;2024-03-29T00:33:29;7.74;97.31
63051;SHT30;49136;47.416;19.402;2024-03-29T00:35:55;7.71;97.47
63051;SHT30;49136;47.416;19.402;2024-03-29T00:38:21;7.72;97.28
63051;SHT30;49136;47.416;19.402;2024-03-29T00:40:46;7.67;97.40
63051;SHT30;49136;47.416;19.402;2024-03-29T00:43:12;7.57;97.62
63051;SHT30;49136;47.416;19.402;2024-03-29T00:45:37;7.46;97.92
63051;SHT30;49136;47.416;19.402;2024-03-29T00:48:03;7.48;97.62
63051;SHT30;49136;47.416;19.402;2024-03-29T00:50:29;7.46;97.66
63051;SHT30;49136;47.416;19.402;2024-03-29T00:52:55;7.43;97.35
63051;SHT30;49136;47.416;19.402;2024-03-29T00:55:20;7.38;97.63
63051;SHT30;49136;47.416;19.402;2024-03-29T00:57:46;7.35;97.38
63051;SHT30;49136;47.416;19.402;2024-03-29T01:00:11;7.31;97.57
63051;SHT30;49136;47.416;19.402;2024-03-29T01:02:37;7.22;97.69
63051;SHT30;49136;47.416;19.402;2024-03-29T01:05:03;7.20;97.69
63051;SHT30;49136;47.416;19.402;2024-03-29T01:07:28;7.06;97.81
63051;SHT30;49136;47.416;19.402;2024-03-29T01:09:54;6.95;98.22
63051;SHT30;49136;47.416;19.402;2024-03-29T01:12:19;6.82;98.52
63051;SHT30;49136;47.416;19.402;2024-03-29T01:14:45;6.75;98.60
63051;SHT30;49136;47.416;19.402;2024-03-29T01:17:11;6.67;98.71
63051;SHT30;49136;47.416;19.402;2024-03-29T01:19:37;6.60;99.16
63051;SHT30;49136;47.416;19.402;2024-03-29T01:22:03;6.54;99.22
63051;SHT30;49136;47.416;19.402;2024-03-29T01:24:29;6.50;99.03
63051;SHT30;49136;47.416;19.402;2024-03-29T01:26:55;6.41;99.26
63051;SHT30;49136;47.416;19.402;2024-03-29T01:29:20;6.36;99.44
63051;SHT30;49136;47.416;19.402;2024-03-29T01:31:46;6.22;99.35
63051;SHT30;49136;47.416;19.402;2024-03-29T01:34:11;6.08;99.67
63051;SHT30;49136;47.416;19.402;2024-03-29T01:36:37;5.99;99.99
63051;SHT30;49136;47.416;19.402;2024-03-29T01:39:03;5.90;99.99
63051;SHT30;49136;47.416;19.402;2024-03-29T01:41:29;5.80;99.99
63051;SHT30;49136;47.416;19.402;2024-03-29T01:43:55;5.78;99.99
63051;SHT30;49136;47.416;19.402;2024-03-29T01:46:22;5.70;99.99
63051;SHT30;49136;47.416;19.402;2024-03-29T01:48:50;5.64;99.99
63051;SHT30;49136;47.416;19.402;2024-03-29T01:51:16;5.62;99.99
63051;SHT30;49136;47.416;19.402;2024-03-29T01:53:43;5.53;99.99
63051;SHT30;49136;47.416;19.402;2024-03-29T01:56:10;5.47;99.99
63051;SHT30;49136;47.416;19.402;2024-03-29T01:58:37;5.38;99.99
63051;SHT30;49136;47.416;19.402;2024-03-29T02:01:05;5.27;99.99
63051;SHT30;49136;47.416;19.402;2024-03-29T02:03:32;5.17;99.99
63051;SHT30;49136;47.416;19.402;2024-03-29T02:05:58;5.08;99.99
63051;SHT30;49136;47.416;19.402;2024-03-29T02:08:25;5.03;99.99
63051;SHT30;49136;47.416;19.402;2024-03-29T02:10:51;4.91;99.99
63051;SHT30;49136;47.416;19.402;2024-03-29T02:13:17;4.84;99.99
63051;SHT30;49136;47.416;19.402;2024-03-29T02:15:42;4.79;99.99
63051;SHT30;49136;47.416;19.402;2024-03-29T02:18:08;4.76;99.99
63051;SHT30;49136;47.416;19.402;2024-03-29T02:20:34;4.68;99.99
63051;SHT30;49136;47.416;19.402;2024-03-29T02:23:13;4.59;99.99
63051;SHT30;49136;47.416;19.402;2024-03-29T02:25:39;4.56;99.99
63051;SHT30;49136;47.416;19.402;2024-03-29T02:28:05;4.46;99.99
63051;SHT30;49136;47.416;19.402;2024-03-29T02:30:31;4.41;99.99
63051;SHT30;49136;47.416;19.402;2024-03-29T02:33:00;4.48;99.99
63051;SHT30;49136;47.416;19.402;2024-03-29T02:35:26;4.35;99.99
63051;SHT30;49136;47.416;19.402;2024-03-29T02:37:51;4.33;99.99
63051;SHT30;49136;47.416;19.402;2024-03-29T02:40:18;4.20;99.99
63051;SHT30;49136;47.416;19.402;2024-03-29T02:42:43;4.14;99.99
63051;SHT30;49136;47.416;19.402;2024-03-29T02:45:09;4.14;99.99
63051;SHT30;49136;47.416;19.402;2024-03-29T02:47:35;4.03;99.99
63051;SHT30;49136;47.416;19.402;2024-03-29T02:50:00;4.01;99.99
63051;SHT30;49136;47.416;19.402;2024-03-29T02:52:26;3.92;99.99
63051;SHT30;49136;47.416;19.402;2024-03-29T02:54:51;3.83;99.99
63051;SHT30;49136;47.416;19.402;2024-03-29T02:57:17;3.74;99.99
63051;SHT30;49136;47.416;19.402;2024-03-29T02:59:42;3.75;99.99
63051;SHT30;49136;47.416;19.402;2024-03-29T03:02:08;3.82;99.99
63051;SHT30;49136;47.416;19.402;2024-03-29T03:04:34;3.82;99.99
63051;SHT30;49136;47.416;19.402;2024-03-29T03:06:59;3.75;99.99
63051;SHT30;49136;47.416;19.402;2024-03-29T03:09:43;3.78;99.99
63051;SHT30;49136;47.416;19.402;2024-03-29T03:12:29;3.66;99.99
63051;SHT30;49136;47.416;19.402;2024-03-29T03:14:55;3.61;99.99
63051;SHT30;49136;47.416;19.402;2024-03-29T03:17:20;3.51;99.99
63051;SHT30;49136;47.416;19.402;2024-03-29T03:19:46;3.50;99.99
63051;SHT30;49136;47.416;19.402;2024-03-29T03:22:11;3.38;99.99
63051;SHT30;49136;47.416;19.402;2024-03-29T03:24:37;3.35;99.99
63051;SHT30;49136;47.416;19.402;2024-03-29T03:27:03;3.26;99.99
63051;SHT30;49136;47.416;19.402;2024-03-29T03:29:29;3.23;99.99
63051;SHT30;49136;47.416;19.402;2024-03-29T03:31:54;3.17;99.99
63051;SHT30;49136;47.416;19.402;2024-03-29T03:34:20;3.05;99.99
63051;SHT30;49136;47.416;19.402;2024-03-29T03:36:45;3.03;99.99
63051;SHT30;49136;47.416;19.402;2024-03-29T03:39:11;3.07;99.99
63051;SHT30;49136;47.416;19.402;2024-03-29T03:41:36;3.09;99.99
63051;SHT30;49136;47.416;19.402;2024-03-29T03:44:02;3.14;99.99
63051;SHT30;49136;47.416;19.402;2024-03-29T03:46:27;3.16;99.99
63051;SHT30;49136;47.416;19.402;2024-03-29T03:48:53;3.06;99.99
63051;SHT30;49136;47.416;19.402;2024-03-29T03:51:18;2.99;99.99
63051;SHT30;49136;47.416;19.402;2024-03-29T03:53:44;2.92;99.99
63051;SHT30;49136;47.416;19.402;2024-03-29T03:56:09;2.88;99.99
63051;SHT30;49136;47.416;19.402;2024-03-29T03:58:35;2.99;99.99
63051;SHT30;49136;47.416;19.402;2024-03-29T04:01:04;3.03;99.99
63051;SHT30;49136;47.416;19.402;2024-03-29T04:03:30;3.03;99.99
63051;SHT30;49136;47.416;19.402;2024-03-29T04:05:56;3.03;99.99
63051;SHT30;49136;47.416;19.402;2024-03-29T04:08:22;3.23;99.99
63051;SHT30;49136;47.416;19.402;2024-03-29T04:10:47;3.28;99.99
63051;SHT30;49136;47.416;19.402;2024-03-29T04:13:13;3.34;99.99
63051;SHT30;49136;47.416;19.402;2024-03-29T04:15:39;3.47;99.99
63051;SHT30;49136;47.416;19.402;2024-03-29T04:18:05;3.45;99.99
63051;SHT30;49136;47.416;19.402;2024-03-29T04:20:31;3.41;99.99
63051;SHT30;49136;47.416;19.402;2024-03-29T04:22:57;3.47;99.99
63051;SHT30;49136;47.416;19.402;2024-03-29T04:25:23;3.41;99.99
63051;SHT30;49136;47.416;19.402;2024-03-29T04:27:48;3.42;99.99
63051;SHT30;49136;47.416;19.402;2024-03-29T04:30:14;3.40;99.99
63051;SHT30;49136;47.416;19.402;2024-03-29T04:32:39;3.28;99.99
63051;SHT30;49136;47.416;19.402;2024-03-29T04:35:05;3.33;99.99
63051;SHT30;49136;47.416;19.402;2024-03-29T04:37:31;3.34;99.99
63051;SHT30;49136;47.416;19.402;2024-03-29T04:39:56;3.27;99.99
63051;SHT30;49136;47.416;19.402;2024-03-29T04:42:22;3.17;99.99
63051;SHT30;49136;47.416;19.402;2024-03-29T04:44:47;3.13;99.99
63051;SHT30;49136;47.416;19.402;2024-03-29T04:47:13;3.07;99.99
63051;SHT30;49136;47.416;19.402;2024-03-29T04:49:38;3.02;99.99
63051;SHT30;49136;47.416;19.402;2024-03-29T04:52:07;2.96;99.99
63051;SHT30;49136;47.416;19.402;2024-03-29T04:54:33;2.93;99.99
63051;SHT30;49136;47.416;19.402;2024-03-29T04:57:02;2.93;99.99
63051;SHT30;49136;47.416;19.402;2024-03-29T04:59:31;2.99;99.99
63051;SHT30;49136;47.416;19.402;2024-03-29T05:01:58;2.99;99.99
63051;SHT30;49136;47.416;19.402;2024-03-29T05:04:24;3.02;99.99
63051;SHT30;49136;47.416;19.402;2024-03-29T05:07:00;3.22;99.99
63051;SHT30;49136;47.416;19.402;2024-03-29T05:09:26;3.28;99.99
63051;SHT30;49136;47.416;19.402;2024-03-29T05:11:52;3.30;99.99
63051;SHT30;49136;47.416;19.402;2024-03-29T05:14:20;3.40;99.99
63051;SHT30;49136;47.416;19.402;2024-03-29T05:16:46;3.55;99.99
63051;SHT30;49136;47.416;19.402;2024-03-29T05:19:14;3.55;99.99
63051;SHT30;49136;47.416;19.402;2024-03-29T05:21:41;3.71;99.99
63051;SHT30;49136;47.416;19.402;2024-03-29T05:24:07;3.93;99.99
63051;SHT30;49136;47.416;19.402;2024-03-29T05:26:33;4.03;99.99
63051;SHT30;49136;47.416;19.402;2024-03-29T05:28:58;4.06;99.99
63051;SHT30;49136;47.416;19.402;2024-03-29T05:31:25;4.28;99.99
63051;SHT30;49136;47.416;19.402;2024-03-29T05:33:51;4.33;99.99
63051;SHT30;49136;47.416;19.402;2024-03-29T05:36:16;4.41;99.99
63051;SHT30;49136;47.416;19.402;2024-03-29T05:38:42;4.44;99.99
63051;SHT30;49136;47.416;19.402;2024-03-29T05:41:07;4.46;99.99
63051;SHT30;49136;47.416;19.402;2024-03-29T05:43:33;4.60;99.99
63051;SHT30;49136;47.416;19.402;2024-03-29T05:45:58;4.86;99.99
63051;SHT30;49136;47.416;19.402;2024-03-29T05:48:27;5.10;99.99
63051;SHT30;49136;47.416;19.402;2024-03-29T05:50:52;5.46;99.99
63051;SHT30;49136;47.416;19.402;2024-03-29T05:53:18;5.69;99.99
63051;SHT30;49136;47.416;19.402;2024-03-29T05:55:43;5.95;99.99
63051;SHT30;49136;47.416;19.402;2024-03-29T05:58:09;6.25;99.99
63051;SHT30;49136;47.416;19.402;2024-03-29T06:00:34;6.40;99.99
63051;SHT30;49136;47.416;19.402;2024-03-29T06:03:01;6.60;99.99
63051;SHT30;49136;47.416;19.402;2024-03-29T06:05:29;6.89;99.99
63051;SHT30;49136;47.416;19.402;2024-03-29T06:07:55;7.13;99.99
63051;SHT30;49136;47.416;19.402;2024-03-29T06:10:20;7.33;99.99
63051;SHT30;49136;47.416;19.402;2024-03-29T06:12:46;7.54;99.99
63051;SHT30;49136;47.416;19.402;2024-03-29T06:15:12;7.82;99.09
63051;SHT30;49136;47.416;19.402;2024-03-29T06:17:55;7.99;98.39
63051;SHT30;49136;47.416;19.402;2024-03-29T06:20:21;8.23;97.49
63051;SHT30;49136;47.416;19.402;2024-03-29T06:22:47;8.61;96.62
63051;SHT30;49136;47.416;19.402;2024-03-29T06:25:12;8.79;95.94
63051;SHT30;49136;47.416;19.402;2024-03-29T06:27:38;9.04;94.75
63051;SHT30;49136;47.416;19.402;2024-03-29T06:30:07;9.38;93.46
63051;SHT30;49136;47.416;19.402;2024-03-29T06:32:33;9.73;93.24
63051;SHT30;49136;47.416;19.402;2024-03-29T06:34:59;9.94;91.10
63051;SHT30;49136;47.416;19.402;2024-03-29T06:37:26;10.24;90.73
63051;SHT30;49136;47.416;19.402;2024-03-29T06:39:52;10.61;90.21
63051;SHT30;49136;47.416;19.402;2024-03-29T06:42:18;10.74;88.58
63051;SHT30;49136;47.416;19.402;2024-03-29T06:44:43;11.05;88.00
63051;SHT30;49136;47.416;19.402;2024-03-29T06:47:09;11.30;86.91
63051;SHT30;49136;47.416;19.402;2024-03-29T06:49:35;11.67;87.07
63051;SHT30;49136;47.416;19.402;2024-03-29T06:52:01;12.02;85.85
63051;SHT30;49136;47.416;19.402;2024-03-29T06:54:30;12.30;84.98
63051;SHT30;49136;47.416;19.402;2024-03-29T06:56:57;12.55;84.31
63051;SHT30;49136;47.416;19.402;2024-03-29T06:59:23;12.85;83.09
63051;SHT30;49136;47.416;19.402;2024-03-29T07:01:49;13.02;81.70
63051;SHT30;49136;47.416;19.402;2024-03-29T07:04:21;13.10;81.17
63051;SHT30;49136;47.416;19.402;2024-03-29T07:06:47;13.36;81.69
63051;SHT30;49136;47.416;19.402;2024-03-29T07:09:15;13.65;80.96
63051;SHT30;49136;47.416;19.402;2024-03-29T07:11:41;13.89;78.77
63051;SHT30;49136;47.416;19.402;2024-03-29T07:14:09;13.79;78.27
63051;SHT30;49136;47.416;19.402;2024-03-29T07:16:34;13.89;79.34
63051;SHT30;49136;47.416;19.402;2024-03-29T07:19:00;14.13;78.23
63051;SHT30;49136;47.416;19.402;2024-03-29T07:21:26;14.32;77.80
63051;SHT30;49136;47.416;19.402;2024-03-29T07:23:51;14.37;78.24
63051;SHT30;49136;47.416;19.402;2024-03-29T07:26:17;14.48;78.39
63051;SHT30;49136;47.416;19.402;2024-03-29T07:28:42;14.73;76.34
63051;SHT30;49136;47.416;19.402;2024-03-29T07:31:08;14.64;75.50
63051;SHT30;49136;47.416;19.402;2024-03-29T07:33:34;14.97;78.49
63051;SHT30;49136;47.416;19.402;2024-03-29T07:36:00;14.91;76.26
63051;SHT30;49136;47.416;19.402;2024-03-29T07:38:25;15.07;75.80
63051;SHT30;49136;47.416;19.402;2024-03-29T07:40:51;15.36;76.06
63051;SHT30;49136;47.416;19.402;2024-03-29T07:43:21;15.58;74.31
63051;SHT30;49136;47.416;19.402;2024-03-29T07:45:47;15.53;73.69
63051;SHT30;49136;47.416;19.402;2024-03-29T07:48:17;15.71;73.49
63051;SHT30;49136;47.416;19.402;2024-03-29T07:50:48;15.66;72.45
63051;SHT30;49136;47.416;19.402;2024-03-29T07:53:15;15.86;72.98
63051;SHT30;49136;47.416;19.402;2024-03-29T07:55:41;16.04;72.39
63051;SHT30;49136;47.416;19.402;2024-03-29T07:58:06;16.07;71.58
63051;SHT30;49136;47.416;19.402;2024-03-29T08:00:34;16.35;72.41
63051;SHT30;49136;47.416;19.402;2024-03-29T08:03:00;16.61;71.86
63051;SHT30;49136;47.416;19.402;2024-03-29T08:05:27;16.88;71.85
63051;SHT30;49136;47.416;19.402;2024-03-29T08:07:53;16.66;68.50
63051;SHT30;49136;47.416;19.402;2024-03-29T08:10:18;16.08;69.53
63051;SHT30;49136;47.416;19.402;2024-03-29T08:12:44;16.48;70.45
63051;SHT30;49136;47.416;19.402;2024-03-29T08:15:09;16.73;69.94
63051;SHT30;49136;47.416;19.402;2024-03-29T08:17:35;16.38;69.56
63051;SHT30;49136;47.416;19.402;2024-03-29T08:20:01;16.38;69.38
63051;SHT30;49136;47.416;19.402;2024-03-29T08:22:28;16.73;68.75
63051;SHT30;49136;47.416;19.402;2024-03-29T08:24:54;16.60;68.11
63051;SHT30;49136;47.416;19.402;2024-03-29T08:27:19;16.50;69.00
63051;SHT30;49136;47.416;19.402;2024-03-29T08:29:45;16.95;70.55
63051;SHT30;49136;47.416;19.402;2024-03-29T08:32:11;16.77;67.79
63051;SHT30;49136;47.416;19.402;2024-03-29T08:34:36;16.85;66.86
63051;SHT30;49136;47.416;19.402;2024-03-29T08:37:03;17.05;66.36
63051;SHT30;49136;47.416;19.402;2024-03-29T08:39:31;16.96;64.85
63051;SHT30;49136;47.416;19.402;2024-03-29T08:41:58;17.04;67.06
63051;SHT30;49136;47.416;19.402;2024-03-29T08:44:24;17.30;65.88
63051;SHT30;49136;47.416;19.402;2024-03-29T08:46:50;17.11;64.49
63051;SHT30;49136;47.416;19.402;2024-03-29T08:49:16;17.32;64.43
63051;SHT30;49136;47.416;19.402;2024-03-29T08:51:41;17.70;65.53
63051;SHT30;49136;47.416;19.402;2024-03-29T08:54:07;17.60;62.11
63051;SHT30;49136;47.416;19.402;2024-03-29T08:56:32;17.29;64.34
63051;SHT30;49136;47.416;19.402;2024-03-29T08:59:02;17.69;66.33
63051;SHT30;49136;47.416;19.402;2024-03-29T09:01:33;18.23;62.05
63051;SHT30;49136;47.416;19.402;2024-03-29T09:03:58;17.82;59.88
63051;SHT30;49136;47.416;19.402;2024-03-29T09:06:24;17.81;61.17
63051;SHT30;49136;47.416;19.402;2024-03-29T09:08:49;18.05;61.39
63051;SHT30;49136;47.416;19.402;2024-03-29T09:11:15;18.34;59.08
63051;SHT30;49136;47.416;19.402;2024-03-29T09:13:41;18.48;57.48
63051;SHT30;49136;47.416;19.402;2024-03-29T09:16:06;18.46;57.91
63051;SHT30;49136;47.416;19.402;2024-03-29T09:18:32;18.84;58.94
63051;SHT30;49136;47.416;19.402;2024-03-29T09:21:01;18.50;58.18
63051;SHT30;49136;47.416;19.402;2024-03-29T09:23:27;18.64;58.15
63051;SHT30;49136;47.416;19.402;2024-03-29T09:25:54;19.13;58.09
63051;SHT30;49136;47.416;19.402;2024-03-29T09:28:21;19.40;56.90
63051;SHT30;49136;47.416;19.402;2024-03-29T09:30:47;19.20;57.40
63051;SHT30;49136;47.416;19.402;2024-03-29T09:33:15;18.89;56.73
63051;SHT30;49136;47.416;19.402;2024-03-29T09:35:41;18.71;57.09
63051;SHT30;49136;47.416;19.402;2024-03-29T09:38:06;18.84;56.68
63051;SHT30;49136;47.416;19.402;2024-03-29T09:40:32;18.84;55.72
63051;SHT30;49136;47.416;19.402;2024-03-29T09:43:00;18.87;56.76
63051;SHT30;49136;47.416;19.402;2024-03-29T09:45:33;19.30;57.96
63051;SHT30;49136;47.416;19.402;2024-03-29T09:48:04;19.48;57.07
63051;SHT30;49136;47.416;19.402;2024-03-29T09:50:34;19.74;55.96
63051;SHT30;49136;47.416;19.402;2024-03-29T09:53:04;19.86;56.28
63051;SHT30;49136;47.416;19.402;2024-03-29T09:55:31;20.40;55.79
63051;SHT30;49136;47.416;19.402;2024-03-29T09:57:57;20.21;53.51
63051;SHT30;49136;47.416;19.402;2024-03-29T10:00:23;20.03;55.19
63051;SHT30;49136;47.416;19.402;2024-03-29T10:02:50;20.05;54.55
63051;SHT30;49136;47.416;19.402;2024-03-29T10:05:18;19.75;54.91
63051;SHT30;49136;47.416;19.402;2024-03-29T10:07:47;19.44;54.36
63051;SHT30;49136;47.416;19.402;2024-03-29T10:10:13;19.40;56.65
63051;SHT30;49136;47.416;19.402;2024-03-29T10:12:39;19.78;56.49
63051;SHT30;49136;47.416;19.402;2024-03-29T10:15:06;19.96;56.04
63051;SHT30;49136;47.416;19.402;2024-03-29T10:17:46;19.83;55.47
63051;SHT30;49136;47.416;19.402;2024-03-29T10:20:15;19.89;55.30
63051;SHT30;49136;47.416;19.402;2024-03-29T10:22:42;19.58;56.40
63051;SHT30;49136;47.416;19.402;2024-03-29T10:25:08;19.81;56.54
63051;SHT30;49136;47.416;19.402;2024-03-29T10:27:34;19.85;56.09
63051;SHT30;49136;47.416;19.402;2024-03-29T10:29:59;19.50;56.83
63051;SHT30;49136;47.416;19.402;2024-03-29T10:32:25;19.46;56.88
63051;SHT30;49136;47.416;19.402;2024-03-29T10:34:50;19.59;57.24
63051;SHT30;49136;47.416;19.402;2024-03-29T10:37:18;19.54;56.20
63051;SHT30;49136;47.416;19.402;2024-03-29T10:39:50;19.37;56.87
63051;SHT30;49136;47.416;19.402;2024-03-29T10:42:17;19.48;58.11
63051;SHT30;49136;47.416;19.402;2024-03-29T10:44:44;19.20;57.46
63051;SHT30;49136;47.416;19.402;2024-03-29T10:47:11;19.24;57.93
63051;SHT30;49136;47.416;19.402;2024-03-29T10:49:41;19.40;58.52
63051;SHT30;49136;47.416;19.402;2024-03-29T10:52:08;19.66;58.64
63051;SHT30;49136;47.416;19.402;2024-03-29T10:54:36;19.69;57.54
63051;SHT30;49136;47.416;19.402;2024-03-29T10:57:16;19.62;59.15
63051;SHT30;49136;47.416;19.402;2024-03-29T10:59:51;19.71;58.43
63051;SHT30;49136;47.416;19.402;2024-03-29T11:02:42;19.69;59.34
63051;SHT30;49136;47.416;19.402;2024-03-29T11:05:12;19.43;59.68
63051;SHT30;49136;47.416;19.402;2024-03-29T11:07:41;19.69;60.67
63051;SHT30;49136;47.416;19.402;2024-03-29T11:10:15;19.99;59.48
63051;SHT30;49136;47.416;19.402;2024-03-29T11:15:44;20.62;61.14
63051;SHT30;49136;47.416;19.402;2024-03-29T11:18:10;20.79;59.68
63051;SHT30;49136;47.416;19.402;2024-03-29T11:20:36;21.20;59.63
63051;SHT30;49136;47.416;19.402;2024-03-29T11:23:07;20.82;59.89
63051;SHT30;49136;47.416;19.402;2024-03-29T11:26:03;20.96;60.07
63051;SHT30;49136;47.416;19.402;2024-03-29T11:28:33;21.01;60.11
63051;SHT30;49136;47.416;19.402;2024-03-29T11:31:07;20.97;60.73
63051;SHT30;49136;47.416;19.402;2024-03-29T11:33:44;21.32;59.07
63051;SHT30;49136;47.416;19.402;2024-03-29T11:38:45;21.93;59.56
63051;SHT30;49136;47.416;19.402;2024-03-29T11:41:17;22.07;59.00
63051;SHT30;49136;47.416;19.402;2024-03-29T11:43:44;21.93;58.98
63051;SHT30;49136;47.416;19.402;2024-03-29T11:46:13;22.32;60.43
63051;SHT30;49136;47.416;19.402;2024-03-29T11:48:39;22.63;59.85
63051;SHT30;49136;47.416;19.402;2024-03-29T11:51:10;22.56;58.43
63051;SHT30;49136;47.416;19.402;2024-03-29T11:53:37;22.38;59.41
63051;SHT30;49136;47.416;19.402;2024-03-29T11:56:03;22.25;60.04
63051;SHT30;49136;47.416;19.402;2024-03-29T11:58:31;23.00;58.72
63051;SHT30;49136;47.416;19.402;2024-03-29T12:01:00;22.81;58.00
63051;SHT30;49136;47.416;19.402;2024-03-29T12:03:27;22.84;59.26
63051;SHT30;49136;47.416;19.402;2024-03-29T12:05:55;22.74;58.91
63051;SHT30;49136;47.416;19.402;2024-03-29T12:08:24;22.96;58.82
63051;SHT30;49136;47.416;19.402;2024-03-29T12:10:53;22.53;59.54
63051;SHT30;49136;47.416;19.402;2024-03-29T12:13:19;22.49;60.86
63051;SHT30;49136;47.416;19.402;2024-03-29T12:15:44;22.71;59.20
63051;SHT30;49136;47.416;19.402;2024-03-29T12:18:10;22.64;59.14
63051;SHT30;49136;47.416;19.402;2024-03-29T12:20:38;22.83;58.88
63051;SHT30;49136;47.416;19.402;2024-03-29T12:23:08;22.66;59.99
63051;SHT30;49136;47.416;19.402;2024-03-29T12:25:36;22.46;60.15
63051;SHT30;49136;47.416;19.402;2024-03-29T12:28:02;22.01;61.32
63051;SHT30;49136;47.416;19.402;2024-03-29T12:30:28;22.07;61.06
63051;SHT30;49136;47.416;19.402;2024-03-29T12:35:27;21.51;61.47
63051;SHT30;49136;47.416;19.402;2024-03-29T12:37:53;21.21;62.10
63051;SHT30;49136;47.416;19.402;2024-03-29T12:40:24;21.06;62.62
63051;SHT30;49136;47.416;19.402;2024-03-29T12:42:51;20.99;63.26
63051;SHT30;49136;47.416;19.402;2024-03-29T12:45:20;20.87;62.98
63051;SHT30;49136;47.416;19.402;2024-03-29T12:47:46;20.52;64.14
63051;SHT30;49136;47.416;19.402;2024-03-29T12:50:14;20.23;64.29
63051;SHT30;49136;47.416;19.402;2024-03-29T12:52:44;20.21;64.86
